Time;durP1;ratioP1;P1;durP2;ratioP2;P2;SDS_P1;SDS_P2;PMS_P1;PMS_P2;Temp;Humidity;BMP_temperature;BMP_pressure;BME280_temperature;BME280_humidity;BME280_pressure;Samples;Min_cycle;Max_cycle;Signal;HPM_P1;HPM_P2
2022/10/31 00:02:18;;;;;;;41.72;22.40;;;;;;;;;;5025614;28;20046;-81
2022/10/31 00:04:44;;;;;;;38.60;22.30;;;;;;;;;;4994641;28;20049;-81
2022/10/31 00:07:12;;;;;;;34.60;21.05;;;;;;;;;;5018586;28;20034;-80
2022/10/31 00:09:39;;;;;;;37.83;21.45;;;;;;;;;;5024214;28;20041;-80
2022/10/31 00:12:05;;;;;;;39.30;21.25;;;;;;;;;;5018066;28;20049;-77
2022/10/31 00:14:31;;;;;;;39.70;20.95;;;;;;;;;;5023821;28;20030;-78
2022/10/31 00:16:57;;;;;;;37.30;22.58;;;;;;;;;;5025634;28;20160;-78
2022/10/31 00:19:25;;;;;;;40.85;20.92;;;;;;;;;;5030370;28;20108;-78
2022/10/31 00:21:52;;;;;;;45.88;22.05;;;;;;;;;;5019471;28;20050;-77
2022/10/31 00:24:19;;;;;;;40.00;22.88;;;;;;;;;;5010161;28;20034;-77
2022/10/31 00:26:46;;;;;;;45.75;26.13;;;;;;;;;;5009748;28;20564;-79
2022/10/31 00:29:12;;;;;;;45.22;22.33;;;;;;;;;;5004707;28;20022;-78
2022/10/31 00:31:39;;;;;;;39.10;20.95;;;;;;;;;;5010729;28;20120;-78
2022/10/31 00:34:05;;;;;;;34.40;19.13;;;;;;;;;;5006347;28;20110;-78
2022/10/31 00:36:32;;;;;;;28.45;18.33;;;;;;;;;;5014790;28;20029;-77
2022/10/31 00:38:58;;;;;;;36.67;20.48;;;;;;;;;;4990310;28;20104;-78
2022/10/31 00:41:24;;;;;;;32.97;18.95;;;;;;;;;;5008107;28;20041;-77
2022/10/31 00:43:51;;;;;;;35.78;20.52;;;;;;;;;;5003102;28;20717;-77
2022/10/31 00:46:17;;;;;;;38.20;20.73;;;;;;;;;;5002601;28;20026;-78
2022/10/31 00:48:44;;;;;;;37.58;21.98;;;;;;;;;;4996859;28;20500;-76
2022/10/31 00:51:12;;;;;;;35.80;21.08;;;;;;;;;;5006779;28;20101;-76
2022/10/31 00:53:40;;;;;;;35.92;20.08;;;;;;;;;;4998495;28;20088;-78
2022/10/31 00:56:06;;;;;;;31.65;19.00;;;;;;;;;;5002490;28;20169;-77
2022/10/31 00:58:34;;;;;;;31.30;19.42;;;;;;;;;;4999613;28;20101;-77
2022/10/31 01:01:01;;;;;;;36.13;18.60;;;;;;;;;;4965788;28;20181;-78
2022/10/31 01:03:34;;;;;;;36.97;20.65;;;;;;;;;;4993329;28;20404;-78
2022/10/31 01:06:10;;;;;;;36.08;19.48;;;;;;;;;;4998650;28;20041;-77
2022/10/31 01:08:37;;;;;;;32.00;19.02;;;;;;;;;;4993835;28;20069;-78
2022/10/31 01:11:22;;;;;;;35.92;19.20;;;;;;;;;;4961467;28;20034;-76
2022/10/31 01:13:51;;;;;;;40.20;19.88;;;;;;;;;;4996380;28;20034;-77
2022/10/31 01:16:20;;;;;;;36.08;20.13;;;;;;;;;;4995624;28;20079;-78
2022/10/31 01:18:48;;;;;;;40.97;20.15;;;;;;;;;;4977762;28;20034;-77
2022/10/31 01:21:18;;;;;;;33.78;20.52;;;;;;;;;;4979244;28;20173;-78
2022/10/31 01:23:45;;;;;;;41.28;20.73;;;;;;;;;;4965022;28;20037;-78
2022/10/31 01:26:25;;;;;;;38.80;20.98;;;;;;;;;;4975038;28;20030;-78
2022/10/31 01:28:59;;;;;;;41.38;21.27;;;;;;;;;;4999228;28;20034;-78
2022/10/31 01:31:37;;;;;;;34.42;21.92;;;;;;;;;;4975360;28;20104;-77
2022/10/31 01:34:04;;;;;;;34.95;21.55;;;;;;;;;;4975257;28;20033;-78
2022/10/31 01:36:36;;;;;;;44.20;22.30;;;;;;;;;;4995881;28;20022;-78
2022/10/31 01:39:05;;;;;;;34.42;20.42;;;;;;;;;;5013279;28;20084;-78
2022/10/31 01:41:34;;;;;;;41.97;22.77;;;;;;;;;;4994617;28;20488;-78
2022/10/31 01:44:15;;;;;;;39.03;22.83;;;;;;;;;;4981635;28;20123;-78
2022/10/31 01:47:11;;;;;;;33.17;19.67;;;;;;;;;;4992747;28;20600;-79
2022/10/31 01:49:50;;;;;;;36.28;21.65;;;;;;;;;;4976959;28;20034;-78
2022/10/31 01:52:42;;;;;;;45.22;20.95;;;;;;;;;;4993086;28;20030;-77
2022/10/31 01:55:14;;;;;;;35.85;21.27;;;;;;;;;;4971741;28;20046;-77
2022/10/31 01:57:45;;;;;;;38.13;18.88;;;;;;;;;;4991518;28;20018;-77
2022/10/31 02:00:12;;;;;;;32.13;19.92;;;;;;;;;;4994061;28;20050;-77
2022/10/31 02:02:45;;;;;;;35.83;21.30;;;;;;;;;;5011723;28;20057;-77
2022/10/31 02:05:21;;;;;;;31.85;20.42;;;;;;;;;;4976328;28;20154;-77
2022/10/31 02:08:05;;;;;;;34.40;20.58;;;;;;;;;;4994321;28;20415;-77
2022/10/31 02:10:33;;;;;;;34.35;22.83;;;;;;;;;;4976165;28;20038;-77
2022/10/31 02:13:02;;;;;;;36.75;21.70;;;;;;;;;;4992286;28;20089;-76
2022/10/31 02:15:31;;;;;;;34.03;22.23;;;;;;;;;;4977407;28;20057;-78
2022/10/31 02:17:57;;;;;;;36.50;21.77;;;;;;;;;;4995615;28;20034;-79
2022/10/31 02:20:25;;;;;;;41.35;23.15;;;;;;;;;;5011973;28;20041;-77
2022/10/31 02:23:16;;;;;;;42.45;24.25;;;;;;;;;;4995272;28;20026;-76
2022/10/31 02:29:45;;;;;;;36.67;23.50;;;;;;;;;;4993671;28;20180;-78
2022/10/31 02:32:43;;;;;;;40.75;23.80;;;;;;;;;;4993330;28;20077;-77
2022/10/31 02:35:32;;;;;;;37.83;22.55;;;;;;;;;;4980332;28;20454;-77
2022/10/31 02:38:21;;;;;;;47.92;24.05;;;;;;;;;;5003692;28;20061;-77
2022/10/31 02:41:10;;;;;;;33.42;21.52;;;;;;;;;;5004319;28;20037;-77
2022/10/31 02:44:00;;;;;;;37.35;21.23;;;;;;;;;;4985218;28;20045;-76
2022/10/31 02:46:44;;;;;;;33.28;21.20;;;;;;;;;;5009358;28;20041;-77
2022/10/31 02:49:42;;;;;;;40.97;23.33;;;;;;;;;;4981134;28;20037;-77
2022/10/31 02:52:35;;;;;;;40.13;22.70;;;;;;;;;;5084660;22;20461;-68
2022/10/31 02:55:10;;;;;;;;;;;;;;;;;;5033304;28;20051;-68
2022/10/31 02:57:40;;;;;;;35.90;22.88;;;;;;;;;;5043540;28;19974;-67
2022/10/31 03:00:08;;;;;;;38.28;22.25;;;;;;;;;;5033263;28;20033;-68
2022/10/31 03:02:52;;;;;;;38.38;22.92;;;;;;;;;;5045772;28;20028;-68
2022/10/31 03:05:38;;;;;;;37.53;23.35;;;;;;;;;;5048671;28;20025;-68
2022/10/31 03:08:30;;;;;;;42.78;24.08;;;;;;;;;;5039751;28;20033;-68
2022/10/31 03:11:03;;;;;;;42.55;24.85;;;;;;;;;;5060593;28;20041;-68
2022/10/31 03:13:51;;;;;;;42.03;23.45;;;;;;;;;;5032743;28;20029;-68
2022/10/31 03:16:35;;;;;;;38.72;21.90;;;;;;;;;;5032691;28;20043;-67
2022/10/31 03:19:14;;;;;;;35.72;22.52;;;;;;;;;;5032886;28;20114;-67
2022/10/31 03:21:54;;;;;;;39.83;24.20;;;;;;;;;;5033337;28;20044;-67
2022/10/31 03:24:26;;;;;;;36.28;22.38;;;;;;;;;;5039182;28;20053;-68
2022/10/31 03:26:57;;;;;;;36.60;23.30;;;;;;;;;;5005644;28;20029;-67
2022/10/31 03:29:28;;;;;;;41.50;22.73;;;;;;;;;;4999633;28;20041;-67
2022/10/31 03:31:59;;;;;;;40.97;23.17;;;;;;;;;;4994888;28;20034;-68
2022/10/31 03:34:27;;;;;;;37.83;21.70;;;;;;;;;;5030857;28;20084;-67
2022/10/31 03:36:57;;;;;;;36.63;21.95;;;;;;;;;;5031103;28;20409;-67
2022/10/31 03:39:24;;;;;;;44.60;22.73;;;;;;;;;;5029748;28;20037;-68
2022/10/31 03:41:57;;;;;;;42.35;22.00;;;;;;;;;;5001861;28;20029;-68
2022/10/31 03:44:28;;;;;;;41.95;23.40;;;;;;;;;;5040707;28;20060;-67
2022/10/31 03:47:03;;;;;;;43.33;24.52;;;;;;;;;;5045513;28;20044;-68
2022/10/31 03:49:30;;;;;;;39.05;22.98;;;;;;;;;;5033261;28;20037;-68
2022/10/31 03:52:22;;;;;;;33.15;21.00;;;;;;;;;;5050057;28;20504;-67
2022/10/31 03:55:15;;;;;;;38.80;21.15;;;;;;;;;;5017329;28;20041;-68
2022/10/31 03:58:00;;;;;;;36.92;22.10;;;;;;;;;;5016279;28;20033;-68
2022/10/31 04:00:26;;;;;;;33.75;20.80;;;;;;;;;;5049837;28;21023;-68
2022/10/31 04:03:02;;;;;;;39.72;22.15;;;;;;;;;;5016093;28;20033;-67
2022/10/31 04:05:31;;;;;;;37.30;22.10;;;;;;;;;;5033147;28;20037;-68
2022/10/31 04:08:03;;;;;;;33.00;21.08;;;;;;;;;;5036733;28;20037;-68
2022/10/31 04:10:32;;;;;;;36.67;22.63;;;;;;;;;;5037300;28;20065;-68
2022/10/31 04:13:07;;;;;;;29.73;20.52;;;;;;;;;;5036761;28;20028;-68
2022/10/31 04:15:42;;;;;;;38.92;21.35;;;;;;;;;;5034183;28;20029;-68
2022/10/31 04:18:08;;;;;;;38.30;23.63;;;;;;;;;;5033935;28;20386;-68
2022/10/31 04:20:41;;;;;;;39.92;22.88;;;;;;;;;;5034362;28;20386;-68
2022/10/31 04:23:22;;;;;;;42.08;24.63;;;;;;;;;;5060525;28;20037;-68
2022/10/31 04:25:48;;;;;;;45.30;24.52;;;;;;;;;;5033285;28;20033;-68
2022/10/31 04:28:16;;;;;;;43.55;24.35;;;;;;;;;;5035326;28;20028;-69
2022/10/31 04:30:42;;;;;;;38.28;22.27;;;;;;;;;;5029570;28;20039;-68
2022/10/31 04:33:08;;;;;;;78.85;27.88;;;;;;;;;;5034147;28;20036;-68
2022/10/31 04:35:34;;;;;;;52.88;24.05;;;;;;;;;;5031930;28;20091;-67
2022/10/31 04:38:00;;;;;;;42.70;23.48;;;;;;;;;;5048770;28;20386;-67
2022/10/31 04:40:27;;;;;;;42.65;23.52;;;;;;;;;;5065266;28;20033;-67
2022/10/31 04:42:56;;;;;;;44.72;23.00;;;;;;;;;;5049507;28;20021;-69
2022/10/31 04:45:21;;;;;;;49.85;22.50;;;;;;;;;;5036023;28;20079;-67
2022/10/31 04:47:51;;;;;;;33.10;21.23;;;;;;;;;;5032307;28;20417;-68
2022/10/31 04:50:17;;;;;;;39.75;22.13;;;;;;;;;;5035668;28;20104;-68
2022/10/31 04:52:45;;;;;;;35.88;20.15;;;;;;;;;;5034908;28;20124;-68
2022/10/31 04:55:15;;;;;;;41.10;21.05;;;;;;;;;;5035256;28;20107;-68
2022/10/31 04:57:59;;;;;;;42.20;20.92;;;;;;;;;;5054015;28;20087;-68
2022/10/31 05:00:26;;;;;;;39.47;21.23;;;;;;;;;;5035004;28;20053;-68
2022/10/31 05:02:57;;;;;;;40.08;21.30;;;;;;;;;;5051978;28;20116;-67
2022/10/31 05:05:31;;;;;;;45.72;23.92;;;;;;;;;;5064181;28;20036;-68
2022/10/31 05:07:59;;;;;;;45.40;23.88;;;;;;;;;;5030867;28;20102;-68
2022/10/31 05:10:28;;;;;;;39.42;22.20;;;;;;;;;;5035390;28;20056;-67
2022/10/31 05:12:59;;;;;;;37.08;22.50;;;;;;;;;;5031400;28;20029;-68
2022/10/31 05:15:44;;;;;;;35.30;21.48;;;;;;;;;;5043702;28;20111;-68
2022/10/31 05:18:28;;;;;;;42.47;21.42;;;;;;;;;;5053858;28;20048;-69
2022/10/31 05:21:13;;;;;;;40.15;22.52;;;;;;;;;;5053204;28;20059;-67
2022/10/31 05:23:46;;;;;;;42.97;22.38;;;;;;;;;;5035374;28;20040;-68
2022/10/31 05:26:13;;;;;;;44.35;23.13;;;;;;;;;;5067773;28;20041;-68
2022/10/31 05:28:39;;;;;;;35.45;21.05;;;;;;;;;;5034719;28;20024;-68
2022/10/31 05:31:05;;;;;;;47.20;22.88;;;;;;;;;;5032188;28;20029;-67
2022/10/31 05:33:31;;;;;;;43.00;23.55;;;;;;;;;;5033429;28;20021;-67
2022/10/31 05:36:16;;;;;;;39.78;21.30;;;;;;;;;;5048570;28;20056;-69
2022/10/31 05:39:02;;;;;;;41.22;21.67;;;;;;;;;;5051878;28;20120;-68
2022/10/31 05:41:34;;;;;;;33.42;19.20;;;;;;;;;;5034838;28;20041;-67
2022/10/31 05:44:06;;;;;;;32.08;18.60;;;;;;;;;;5029935;28;20150;-68
2022/10/31 05:46:43;;;;;;;33.38;18.27;;;;;;;;;;5032159;28;20114;-68
2022/10/31 05:49:27;;;;;;;30.48;18.08;;;;;;;;;;5051153;28;20125;-68
2022/10/31 05:52:12;;;;;;;27.50;17.05;;;;;;;;;;5050910;28;20060;-67
2022/10/31 05:54:46;;;;;;;33.17;17.45;;;;;;;;;;5064569;28;20181;-69
2022/10/31 05:57:11;;;;;;;25.52;16.38;;;;;;;;;;5028539;28;20509;-69
2022/10/31 05:59:37;;;;;;;27.27;15.45;;;;;;;;;;5032458;28;20017;-68
2022/10/31 06:02:03;;;;;;;29.33;15.82;;;;;;;;;;5036614;28;20072;-68
2022/10/31 06:04:48;;;;;;;25.38;15.20;;;;;;;;;;5048091;28;20393;-67
2022/10/31 06:07:14;;;;;;;27.27;14.88;;;;;;;;;;5015136;28;20037;-68
2022/10/31 06:09:40;;;;;;;26.55;15.35;;;;;;;;;;5045066;28;20119;-69
2022/10/31 06:12:06;;;;;;;27.75;17.15;;;;;;;;;;5048814;28;20037;-69
2022/10/31 06:14:50;;;;;;;62.53;43.75;;;;;;;;;;5052139;28;20086;-68
2022/10/31 06:17:16;;;;;;;54.22;37.20;;;;;;;;;;5029222;28;20033;-69
2022/10/31 06:20:09;;;;;;;46.42;30.02;;;;;;;;;;5030005;28;20485;-68
2022/10/31 06:22:41;;;;;;;45.63;30.13;;;;;;;;;;5040548;28;20030;-68
2022/10/31 06:25:07;;;;;;;44.05;26.42;;;;;;;;;;5031641;28;20040;-68
2022/10/31 06:27:36;;;;;;;39.47;23.83;;;;;;;;;;5033325;28;20033;-68
2022/10/31 06:30:10;;;;;;;35.78;23.27;;;;;;;;;;5032764;28;20033;-69
2022/10/31 06:32:39;;;;;;;32.10;21.05;;;;;;;;;;5050915;28;20045;-68
2022/10/31 06:35:06;;;;;;;30.50;21.10;;;;;;;;;;5032063;28;20484;-68
2022/10/31 06:37:35;;;;;;;37.72;23.08;;;;;;;;;;5034549;28;20160;-69
2022/10/31 06:40:12;;;;;;;46.38;23.20;;;;;;;;;;5011655;28;20041;-68
2022/10/31 06:43:01;;;;;;;42.60;21.77;;;;;;;;;;5043628;28;20060;-69
2022/10/31 06:45:29;;;;;;;32.67;21.55;;;;;;;;;;5029633;28;20033;-70
2022/10/31 06:48:13;;;;;;;35.03;20.85;;;;;;;;;;5050003;28;20116;-68
2022/10/31 06:51:00;;;;;;;36.50;22.25;;;;;;;;;;5045734;28;20501;-70
2022/10/31 06:53:29;;;;;;;41.13;22.02;;;;;;;;;;5031257;28;20143;-70
2022/10/31 06:55:56;;;;;;;38.40;23.92;;;;;;;;;;5063860;28;20041;-71
2022/10/31 06:58:22;;;;;;;37.63;25.60;;;;;;;;;;5030104;28;20482;-73
2022/10/31 07:00:49;;;;;;;42.47;27.63;;;;;;;;;;5030200;28;20044;-73
2022/10/31 07:03:16;;;;;;;40.60;26.15;;;;;;;;;;5044314;28;20033;-73
2022/10/31 07:05:43;;;;;;;45.97;30.92;;;;;;;;;;5030258;28;20033;-70
2022/10/31 07:08:11;;;;;;;41.15;26.42;;;;;;;;;;5046953;28;20033;-70
2022/10/31 07:10:39;;;;;;;48.15;29.05;;;;;;;;;;5030609;28;20083;-68
2022/10/31 07:13:09;;;;;;;47.75;29.65;;;;;;;;;;5030989;28;20500;-69
2022/10/31 07:15:38;;;;;;;45.15;29.15;;;;;;;;;;5031779;28;20106;-69
2022/10/31 07:18:06;;;;;;;41.58;27.05;;;;;;;;;;5049292;28;20379;-70
2022/10/31 07:20:33;;;;;;;41.17;25.83;;;;;;;;;;5029160;28;20036;-70
2022/10/31 07:23:00;;;;;;;43.92;27.35;;;;;;;;;;5047163;28;20391;-70
2022/10/31 07:25:27;;;;;;;44.30;27.67;;;;;;;;;;5033284;28;20123;-68
2022/10/31 07:28:14;;;;;;;50.33;30.05;;;;;;;;;;5065254;28;20040;-67
2022/10/31 07:30:50;;;;;;;41.35;29.35;;;;;;;;;;5032586;28;20033;-67
2022/10/31 07:33:18;;;;;;;44.65;29.38;;;;;;;;;;5044186;28;20086;-70
2022/10/31 07:36:03;;;;;;;48.10;27.77;;;;;;;;;;5042174;28;20095;-70
2022/10/31 07:38:30;;;;;;;47.70;27.38;;;;;;;;;;5027205;28;20029;-71
2022/10/31 07:40:59;;;;;;;42.72;25.30;;;;;;;;;;5027360;28;20025;-69
2022/10/31 07:43:28;;;;;;;47.20;26.70;;;;;;;;;;5031595;28;20075;-69
2022/10/31 07:46:12;;;;;;;46.15;30.08;;;;;;;;;;5044936;28;20027;-69
2022/10/31 07:48:58;;;;;;;42.10;29.15;;;;;;;;;;5050413;28;20060;-70
2022/10/31 07:51:53;;;;;;;43.60;30.83;;;;;;;;;;4996218;28;20125;-69
2022/10/31 07:54:28;;;;;;;43.88;28.88;;;;;;;;;;5050725;28;20044;-69
2022/10/31 07:56:54;;;;;;;37.95;25.67;;;;;;;;;;5032676;28;20032;-70
2022/10/31 07:59:21;;;;;;;36.78;25.45;;;;;;;;;;5050220;28;20394;-70
2022/10/31 08:01:47;;;;;;;36.63;25.38;;;;;;;;;;5032564;28;20044;-69
2022/10/31 08:04:43;;;;;;;36.35;24.98;;;;;;;;;;4993687;28;20068;-73
2022/10/31 08:07:28;;;;;;;43.38;24.40;;;;;;;;;;5032433;28;20133;-69
2022/10/31 08:09:59;;;;;;;37.65;21.85;;;;;;;;;;5013911;28;20081;-69
2022/10/31 08:12:29;;;;;;;37.40;23.70;;;;;;;;;;5046212;28;20037;-70
2022/10/31 08:14:55;;;;;;;46.58;23.92;;;;;;;;;;5054221;28;20082;-71
2022/10/31 08:25:21;;;;;;;29.23;19.73;;;;;;;;;;5034368;28;20046;-73
2022/10/31 08:27:51;;;;;;;34.40;21.25;;;;;;;;;;5024205;28;20057;-73
2022/10/31 08:30:22;;;;;;;32.97;19.95;;;;;;;;;;5017505;28;20481;-73
2022/10/31 08:33:14;;;;;;;30.67;19.10;;;;;;;;;;5021261;28;20037;-71
2022/10/31 08:35:58;;;;;;;33.50;19.48;;;;;;;;;;5032343;28;20099;-72
2022/10/31 08:38:48;;;;;;;28.05;16.48;;;;;;;;;;5014092;28;20025;-72
2022/10/31 08:41:16;;;;;;;27.80;16.58;;;;;;;;;;5019526;28;20038;-72
2022/10/31 08:43:42;;;;;;;26.52;16.05;;;;;;;;;;5032326;28;20025;-72
2022/10/31 08:46:08;;;;;;;30.65;16.25;;;;;;;;;;5034405;28;20532;-71
2022/10/31 08:48:34;;;;;;;25.27;16.25;;;;;;;;;;5034536;28;20057;-71
2022/10/31 08:51:02;;;;;;;30.90;16.95;;;;;;;;;;4996813;28;20037;-72
2022/10/31 08:53:29;;;;;;;24.42;15.80;;;;;;;;;;5028594;28;20029;-71
2022/10/31 08:56:18;;;;;;;20.42;14.15;;;;;;;;;;5014971;28;20443;-73
2022/10/31 08:58:45;;;;;;;23.30;13.90;;;;;;;;;;5016444;28;20029;-72
2022/10/31 09:01:11;;;;;;;21.02;14.30;;;;;;;;;;5032405;28;20226;-73
2022/10/31 09:03:37;;;;;;;22.90;13.07;;;;;;;;;;5032272;28;20409;-73
2022/10/31 09:06:08;;;;;;;20.48;13.20;;;;;;;;;;5033243;28;20025;-72
2022/10/31 09:08:35;;;;;;;20.25;12.98;;;;;;;;;;5015948;28;20057;-73
2022/10/31 09:11:01;;;;;;;24.63;13.02;;;;;;;;;;5015699;28;20037;-71
2022/10/31 09:13:46;;;;;;;21.67;13.50;;;;;;;;;;5033676;28;20068;-71
2022/10/31 09:16:34;;;;;;;22.90;12.70;;;;;;;;;;5032650;28;20046;-73
2022/10/31 09:19:00;;;;;;;20.58;13.07;;;;;;;;;;5017039;28;20033;-72
2022/10/31 09:21:26;;;;;;;26.90;13.63;;;;;;;;;;5032259;28;20098;-71
2022/10/31 09:27:33;;;;;;;19.90;13.00;;;;;;;;;;5033543;28;20439;-72
2022/10/31 09:30:00;;;;;;;21.23;12.82;;;;;;;;;;5032157;28;20082;-72
2022/10/31 09:32:26;;;;;;;20.23;13.23;;;;;;;;;;5032971;28;20402;-71
2022/10/31 09:34:51;;;;;;;22.17;13.00;;;;;;;;;;5015337;28;20491;-72
2022/10/31 09:37:20;;;;;;;21.42;12.93;;;;;;;;;;5033214;28;20014;-70
2022/10/31 09:39:46;;;;;;;30.52;16.85;;;;;;;;;;5033247;28;20040;-72
2022/10/31 09:43:06;;;;;;;20.90;12.88;;;;;;;;;;5015436;28;20026;-71
2022/10/31 09:45:52;;;;;;;30.23;13.18;;;;;;;;;;4917342;29;20575;-74
2022/10/31 09:48:55;;;;;;;26.88;14.27;;;;;;;;;;4933717;29;20481;-72
2022/10/31 09:51:41;;;;;;;25.77;15.02;;;;;;;;;;5027289;28;20041;-73
2022/10/31 09:54:27;;;;;;;28.27;18.65;;;;;;;;;;5000616;28;20083;-73
2022/10/31 09:56:53;;;;;;;;;;;;;;;;;;5014151;28;20087;-73
2022/10/31 09:59:26;;;;;;;31.42;20.10;;;;;;;;;;5001092;28;20341;-73
2022/10/31 10:01:55;;;;;;;;;;;;;;;;;;5002426;28;20041;-72
2022/10/31 10:04:26;;;;;;;41.58;23.15;;;;;;;;;;5012728;28;19946;-73
2022/10/31 10:07:43;;;;;;;28.50;18.23;;;;;;;;;;5027538;28;20042;-72
2022/10/31 10:10:31;;;;;;;21.45;12.68;;;;;;;;;;5030161;28;20091;-72
2022/10/31 10:13:37;;;;;;;20.70;12.13;;;;;;;;;;5017854;28;20344;-72
2022/10/31 10:16:35;;;;;;;19.27;12.90;;;;;;;;;;5032425;28;20034;-73
2022/10/31 10:19:19;;;;;;;22.38;12.57;;;;;;;;;;5032362;28;20041;-71
2022/10/31 10:22:14;;;;;;;20.08;12.05;;;;;;;;;;5032504;28;20040;-73
2022/10/31 10:25:02;;;;;;;21.17;12.40;;;;;;;;;;5013314;28;20054;-72
2022/10/31 10:28:08;;;;;;;22.40;12.75;;;;;;;;;;5018129;28;20479;-73
2022/10/31 10:30:56;;;;;;;27.45;13.50;;;;;;;;;;5003754;28;20469;-72
2022/10/31 10:33:25;;;;;;;23.23;13.52;;;;;;;;;;5012537;28;20038;-72
2022/10/31 10:35:55;;;;;;;21.52;12.82;;;;;;;;;;5020631;28;20036;-74
2022/10/31 10:38:28;;;;;;;17.08;11.68;;;;;;;;;;5022814;28;20049;-73
2022/10/31 10:40:54;;;;;;;18.83;10.38;;;;;;;;;;5012127;28;20038;-72
2022/10/31 10:43:37;;;;;;;17.88;11.13;;;;;;;;;;5012282;28;20351;-72
2022/10/31 10:49:40;;;;;;;16.58;9.38;;;;;;;;;;5031239;28;20045;-71
2022/10/31 10:52:35;;;;;;;17.80;9.25;;;;;;;;;;5031236;28;20455;-73
2022/10/31 10:55:26;;;;;;;12.63;8.82;;;;;;;;;;5028359;28;20064;-72
2022/10/31 10:58:02;;;;;;;17.05;8.38;;;;;;;;;;5009325;28;20104;-74
2022/10/31 11:00:34;;;;;;;14.65;7.82;;;;;;;;;;5026543;28;20060;-72
2022/10/31 11:03:00;;;;;;;16.73;7.72;;;;;;;;;;5027648;28;20056;-73
2022/10/31 11:05:58;;;;;;;19.98;8.52;;;;;;;;;;5030330;28;20490;-73
2022/10/31 11:08:33;;;;;;;12.48;7.38;;;;;;;;;;5019757;28;20134;-73
2022/10/31 11:11:15;;;;;;;14.70;8.93;;;;;;;;;;5026233;28;20132;-74
2022/10/31 11:13:42;;;;;;;12.77;7.72;;;;;;;;;;5016508;28;20028;-72
2022/10/31 11:16:28;;;;;;;14.32;7.75;;;;;;;;;;5012501;28;20025;-72
2022/10/31 11:19:09;;;;;;;15.45;7.78;;;;;;;;;;5007270;28;20113;-73
2022/10/31 11:21:35;;;;;;;19.33;7.50;;;;;;;;;;5029605;28;20092;-73
2022/10/31 11:24:10;;;;;;;14.05;7.38;;;;;;;;;;5026918;28;20069;-73
2022/10/31 11:26:41;;;;;;;16.88;8.40;;;;;;;;;;5023112;28;20048;-73
2022/10/31 11:29:20;;;;;;;10.98;7.05;;;;;;;;;;5013957;28;20075;-72
2022/10/31 11:31:48;;;;;;;13.80;8.13;;;;;;;;;;5029309;28;20037;-75
2022/10/31 11:34:33;;;;;;;10.98;8.18;;;;;;;;;;5027023;28;20116;-72
2022/10/31 11:37:09;;;;;;;21.48;9.82;;;;;;;;;;5022175;28;20112;-72
2022/10/31 11:39:42;;;;;;;15.48;8.55;;;;;;;;;;5029582;28;20117;-72
2022/10/31 11:42:08;;;;;;;12.02;8.10;;;;;;;;;;5033528;28;20147;-71
2022/10/31 11:44:35;;;;;;;12.77;6.90;;;;;;;;;;5045476;28;20037;-75
2022/10/31 11:47:04;;;;;;;19.35;8.13;;;;;;;;;;5030784;28;20037;-73
2022/10/31 11:49:41;;;;;;;19.95;7.70;;;;;;;;;;5028020;28;20028;-74
2022/10/31 11:52:17;;;;;;;16.23;7.20;;;;;;;;;;5028603;28;20075;-73
2022/10/31 11:54:48;;;;;;;14.73;7.00;;;;;;;;;;5029743;28;20471;-73
2022/10/31 11:57:30;;;;;;;12.90;7.15;;;;;;;;;;5031224;28;20063;-73
2022/10/31 12:00:03;;;;;;;11.98;7.20;;;;;;;;;;5026432;28;20047;-73
2022/10/31 12:02:49;;;;;;;14.52;6.88;;;;;;;;;;4986922;28;20053;-73
2022/10/31 12:05:23;;;;;;;12.95;7.63;;;;;;;;;;4987903;28;20074;-73
2022/10/31 12:07:50;;;;;;;12.18;7.20;;;;;;;;;;4988165;28;20050;-71
2022/10/31 12:10:18;;;;;;;12.90;6.47;;;;;;;;;;4990923;28;20080;-74
2022/10/31 12:13:10;;;;;;;12.63;6.15;;;;;;;;;;4992516;28;20087;-76
2022/10/31 12:15:39;;;;;;;13.20;6.40;;;;;;;;;;4992427;28;20427;-76
2022/10/31 12:18:24;;;;;;;8.93;5.40;;;;;;;;;;4975704;28;20101;-75
2022/10/31 12:21:08;;;;;;;8.30;5.60;;;;;;;;;;4991533;28;20039;-73
2022/10/31 12:24:02;;;;;;;11.20;5.22;;;;;;;;;;4991789;28;20046;-73
2022/10/31 12:26:37;;;;;;;10.30;5.40;;;;;;;;;;4979571;28;20498;-73
2022/10/31 12:29:39;;;;;;;10.05;5.28;;;;;;;;;;5009460;28;20496;-75
2022/10/31 12:32:22;;;;;;;11.80;5.10;;;;;;;;;;4991243;28;20045;-73
2022/10/31 12:35:04;;;;;;;12.57;5.43;;;;;;;;;;5027933;28;20045;-74
2022/10/31 12:37:51;;;;;;;12.93;5.70;;;;;;;;;;5032552;28;20061;-73
2022/10/31 12:40:41;;;;;;;8.90;5.30;;;;;;;;;;5039599;28;20060;-74
2022/10/31 12:43:25;;;;;;;18.83;5.13;;;;;;;;;;5014776;28;20088;-74
2022/10/31 12:45:56;;;;;;;11.40;4.85;;;;;;;;;;4997640;28;20072;-73
2022/10/31 12:48:25;;;;;;;12.32;4.30;;;;;;;;;;5015245;28;20037;-72
2022/10/31 12:51:03;;;;;;;11.85;6.20;;;;;;;;;;5014690;28;20022;-71
2022/10/31 12:54:03;;;;;;;11.30;6.22;;;;;;;;;;5014345;28;20033;-73
2022/10/31 12:56:46;;;;;;;10.38;5.30;;;;;;;;;;5014301;28;20062;-74
2022/10/31 12:59:33;;;;;;;11.43;5.47;;;;;;;;;;5014239;28;20049;-73
2022/10/31 13:02:12;;;;;;;11.70;5.38;;;;;;;;;;5013990;28;20038;-73
2022/10/31 13:04:47;;;;;;;16.17;6.75;;;;;;;;;;4996380;28;20472;-73
2022/10/31 13:07:22;;;;;;;12.10;6.90;;;;;;;;;;5014585;28;20165;-72
2022/10/31 13:09:53;;;;;;;12.77;6.55;;;;;;;;;;4996572;28;20403;-71
2022/10/31 13:12:21;;;;;;;13.40;6.15;;;;;;;;;;5013913;28;20109;-71
2022/10/31 13:14:54;;;;;;;15.30;7.22;;;;;;;;;;5014265;28;20033;-72
2022/10/31 13:17:38;;;;;;;19.50;6.43;;;;;;;;;;5014221;28;20363;-70
2022/10/31 13:20:07;;;;;;;11.52;5.97;;;;;;;;;;5013883;28;20407;-72
2022/10/31 13:22:35;;;;;;;11.05;6.82;;;;;;;;;;5018815;28;20029;-72
2022/10/31 13:25:15;;;;;;;19.20;7.97;;;;;;;;;;5033873;28;20108;-72
2022/10/31 13:27:57;;;;;;;22.67;7.80;;;;;;;;;;5034146;28;20140;-74
2022/10/31 13:30:26;;;;;;;20.48;6.57;;;;;;;;;;5033083;28;20141;-72
2022/10/31 13:33:01;;;;;;;11.63;5.63;;;;;;;;;;5045420;28;20569;-73
2022/10/31 13:35:52;;;;;;;13.65;5.35;;;;;;;;;;5038380;28;20057;-73
2022/10/31 13:38:24;;;;;;;14.50;5.00;;;;;;;;;;5034648;28;20033;-72
2022/10/31 13:41:10;;;;;;;13.45;5.65;;;;;;;;;;5035413;28;20546;-73
2022/10/31 13:43:48;;;;;;;8.23;4.57;;;;;;;;;;5033568;28;20052;-72
2022/10/31 13:46:33;;;;;;;11.77;5.63;;;;;;;;;;5034518;28;20057;-72
2022/10/31 13:49:00;;;;;;;12.68;4.32;;;;;;;;;;5027708;28;20037;-73
2022/10/31 13:51:28;;;;;;;9.30;4.30;;;;;;;;;;5033154;28;20026;-74
2022/10/31 13:53:54;;;;;;;11.88;4.45;;;;;;;;;;5034117;28;20103;-75
2022/10/31 13:56:27;;;;;;;11.63;4.43;;;;;;;;;;5033952;28;20026;-74
2022/10/31 13:59:14;;;;;;;11.63;4.05;;;;;;;;;;5034212;28;20040;-73
2022/10/31 14:01:54;;;;;;;8.35;3.63;;;;;;;;;;5023685;28;20041;-73
2022/10/31 14:04:27;;;;;;;11.48;3.92;;;;;;;;;;5033424;28;20398;-73
2022/10/31 14:07:07;;;;;;;7.88;4.15;;;;;;;;;;5032100;28;20037;-73
2022/10/31 14:09:34;;;;;;;8.50;3.70;;;;;;;;;;5033291;28;20033;-73
2022/10/31 14:12:21;;;;;;;9.70;4.30;;;;;;;;;;5033696;28;20041;-74
2022/10/31 14:14:56;;;;;;;10.93;4.55;;;;;;;;;;5033731;28;20049;-75
2022/10/31 14:17:39;;;;;;;14.73;4.93;;;;;;;;;;5034428;28;20395;-75
2022/10/31 14:20:11;;;;;;;12.18;5.03;;;;;;;;;;5032968;28;20118;-75
2022/10/31 14:22:39;;;;;;;12.48;4.82;;;;;;;;;;5033306;28;20043;-74
2022/10/31 14:25:44;;;;;;;10.25;4.72;;;;;;;;;;5034872;28;20227;-74
2022/10/31 14:28:31;;;;;;;15.85;4.78;;;;;;;;;;4951317;29;20046;-75
2022/10/31 14:31:00;;;;;;;11.85;4.07;;;;;;;;;;4952829;29;20400;-75
2022/10/31 14:33:28;;;;;;;9.05;4.22;;;;;;;;;;5015539;28;20037;-75
2022/10/31 14:36:03;;;;;;;11.75;4.45;;;;;;;;;;5052608;28;20041;-75
2022/10/31 14:39:07;;;;;;;8.80;4.38;;;;;;;;;;5052705;28;20033;-75
2022/10/31 14:42:17;;;;;;;11.02;4.30;;;;;;;;;;5022698;28;20049;-75
2022/10/31 14:45:20;;;;;;;20.83;4.93;;;;;;;;;;5041465;28;20049;-75
2022/10/31 14:47:58;;;;;;;9.93;4.10;;;;;;;;;;5052495;28;20033;-76
2022/10/31 14:50:44;;;;;;;13.50;3.17;;;;;;;;;;5034786;28;20068;-76
2022/10/31 14:53:18;;;;;;;11.73;2.83;;;;;;;;;;5052313;28;20032;-75
2022/10/31 14:55:49;;;;;;;10.80;4.03;;;;;;;;;;5052440;28;20044;-76
2022/10/31 14:58:39;;;;;;;11.88;5.22;;;;;;;;;;5016411;28;20060;-74
2022/10/31 15:01:06;;;;;;;6.68;2.60;;;;;;;;;;5030554;28;20099;-76
2022/10/31 15:03:39;;;;;;;5.88;2.60;;;;;;;;;;5031999;28;20112;-75
2022/10/31 15:06:17;;;;;;;10.60;2.95;;;;;;;;;;4995958;28;20034;-74
2022/10/31 15:08:47;;;;;;;11.00;3.05;;;;;;;;;;5030241;28;20040;-76
2022/10/31 15:11:17;;;;;;;7.95;2.90;;;;;;;;;;5031682;28;20033;-75
2022/10/31 15:13:53;;;;;;;7.35;3.15;;;;;;;;;;5019877;28;20509;-75
2022/10/31 15:16:27;;;;;;;6.38;2.90;;;;;;;;;;5041557;28;20049;-75
2022/10/31 15:18:56;;;;;;;7.47;2.90;;;;;;;;;;5031207;28;20033;-75
2022/10/31 15:21:24;;;;;;;8.73;3.13;;;;;;;;;;5029478;28;20025;-75
2022/10/31 15:23:53;;;;;;;9.65;3.22;;;;;;;;;;5031554;28;20053;-75
2022/10/31 15:26:22;;;;;;;10.35;3.60;;;;;;;;;;5029028;28;20076;-75
2022/10/31 15:28:59;;;;;;;9.75;3.25;;;;;;;;;;5031237;28;20037;-75
2022/10/31 15:31:25;;;;;;;10.25;3.55;;;;;;;;;;5029425;28;20043;-75